USCGC Healy — NEPP — position and weather

sailwx.info

Track history (hours):
 
Tides and Currents Weather Stations Pressure Air Temp Water Temp Dewpoint Dewpoint Depression Visibility Wind Speed Wind Dir Waves Ship Positions

Oceanographic research ship USCGC Healy (USA)

Detailed information on ship capabilities available from University of Delaware's Ocean Information Center and ARCUS's ALIAS (Arctic Logistics Information and Support) project.

Last reported at 2019-Sep-21 17:00 UTC. Time now 2019-Sep-21 18:09 UTC.
Position N 76°36' W 140°06'.

Type: Military. MMSI: 303902000.

AWS

Wind from 070 at 23 knots

Barometer 1010.9 mb
Air temperature -3.7 ° C
Dewpoint -3.9 ° C
Water temperature -1.4 ° C

Date/timePositionNaut miles runAvg speedWind from/ knotsBaromVisibWave heightAir tempDewpointWater temp
2019-Sep-21 17:00N 76°36' W 140°06'3 2.8 070 / 231010.9 -3.7-3.9-1.4
2019-Sep-21 16:00N 76°36' W 139°54'1 1.4 080 / 181011.5 -6.8-6.9-1.4
2019-Sep-21 15:00N 76°36' W 140°00'0 0.0 070 / 171011.1 -3.6-3.6-1.4
2019-Sep-21 14:00N 76°36' W 140°00'0 0.0 340 / 351010.6 -3.9-3.9-1.4
2019-Sep-21 13:00N 76°36' W 140°00'0 0.0 070 / 131010.6 -4.1-4.1-1.4
2019-Sep-21 12:00N 76°36' W 140°00'4 4.2 100 / 781011.0 -3.7-3.8-1.4
2019-Sep-21 11:00N 76°36' W 140°18'7 6.6 350 / 281011.0 -3.8-3.8-1.4
2019-Sep-21 10:00N 76°42' W 140°30'1313.2 060 / 121011.5 -3.9-3.9-1.4
2019-Sep-21 09:00N 76°54' W 140°54'8 8.1 050 / 121011.4 -3.6-3.6-1.4
2019-Sep-21 08:00N 77°00' W 141°18'7 7.2 220 / 381011.6 -3.7-3.7-1.4
2019-Sep-21 07:00N 77°06' W 141°36'9 9.0 120 / 231011.7 -3.1-3.1-1.4
2019-Sep-21 06:00N 77°12' W 142°06'7 7.2 020 / 71011.8 -3.0-3.0-1.4
2019-Sep-21 05:00N 77°18' W 142°24'8 8.0 040 / 101012.0 -3.4-3.4-1.4
2019-Sep-21 04:00N 77°24' W 142°48'8 7.9 040 / 101012.0 -4.1-4.1-1.4
2019-Sep-21 03:00N 77°30' W 143°12'8 7.9 210 1012.4 -5.1-5.1-1.4
2019-Sep-21 02:00N 77°36' W 143°36'9 8.8 050 / 171012.6 -6.6-6.8-1.4
2019-Sep-21 01:00N 77°42' W 144°06'8 7.9 050 / 171013.0 -7.6-7.9-1.4
2019-Sep-21 00:00N 77°48' W 144°30'9 8.7 050 / 191013.6 -8.4-8.8-1.4
2019-Sep-20 23:00N 77°54' W 145°00'6 6.1 060 / 151013.9 -7.8-8.3-1.4
2019-Sep-20 22:00N 78°00' W 145°06'1 1.2 040 / 21014.6 -6.5-7.0-1.3
2019-Sep-20 21:00N 78°00' W 145°00'0 0.0 030 / 31014.4 -6.2-7.2-1.3
2019-Sep-20 20:00N 78°00' W 145°00'0 0.0 250 / 131014.4 -6.3-7.6-1.3
2019-Sep-20 19:00N 78°00' W 145°00'1 1.2 340 / 521014.3 -6.7-8.1-1.4
2019-Sep-20 18:00N 78°00' W 144°54'0 0.0 350 / 851014.2 -6.8-8.0-1.4
2019-Sep-20 17:00N 78°00' W 144°54'0 0.0 330 1014.0 -7.0-8.1-1.4
2019-Sep-20 16:00N 78°00' W 144°54'1 1.2 290 1014.0 -7.1-8.3-1.4
2019-Sep-20 15:00N 78°00' W 144°48'0 0.0 270 1014.2 -7.3-8.2-1.3
2019-Sep-20 14:00N 78°00' W 144°48'0 0.0 330 1014.3 -7.5-8.2-1.3
2019-Sep-20 13:00N 78°00' W 144°48'0 0.0 300 1014.5 -7.6-8.3-1.3
2019-Sep-20 12:00N 78°00' W 144°48'1 1.2 080 / 161014.6 -7.6-8.4-1.3
2019-Sep-20 11:00N 78°00' W 144°42'0 0.0 080 / 181014.5 -7.5-8.2-1.2
2019-Sep-20 10:00N 78°00' W 144°42'0 0.0 080 / 171014.5 -7.7-9.0-1.3
2019-Sep-20 09:00N 78°00' W 144°42'0 0.0 090 / 181014.4 -7.7-8.9-1.2
2019-Sep-20 08:00N 78°00' W 144°42'1 1.2 080 / 191014.4 -7.6-8.6-1.3
2019-Sep-20 07:00N 78°00' W 144°36'0 0.0 090 / 171014.3 -7.6-8.4-1.4
2019-Sep-20 06:00N 78°00' W 144°36'0 0.0 090 / 161014.4 -7.1-7.8-1.3
2019-Sep-20 05:00N 78°00' W 144°36'1 1.2 300 1014.3 -6.7-7.5-1.3
2019-Sep-20 04:00N 78°00' W 144°30'0 0.0 080 / 161014.3 -6.8-7.5-1.3
2019-Sep-20 03:00N 78°00' W 144°30'1 1.2 090 / 171014.3 -6.5-7.1-1.2
2019-Sep-20 02:00N 78°00' W 144°24'7 7.1 080 / 101014.4 -6.8-7.0-1.4
2019-Sep-20 01:00N 78°06' W 144°06'6 6.1 110 1014.5 -7.3-7.7-1.3
2019-Sep-20 00:00N 78°12' W 144°00'7 7.0 130 1014.5 -7.7-8.2-1.1
2019-Sep-19 23:00N 78°18' W 143°42'6 6.5 230 / 1481015.3 -8.4-8.7-1.2
2019-Sep-19 22:00N 78°24' W 143°30'8 7.7 230 / 591015.7 -8.2-8.6-1.4
2019-Sep-19 21:00N 78°30' W 143°06'1312.5 210 / 701015.9 -8.4-8.5-1.4
2019-Sep-19 20:00N 78°42' W 142°48'6 6.4 180 / 441016.3 -9.6-10.1-1.4
2019-Sep-19 19:00N 78°48' W 142°36'2 2.3 190 / 271016.6 -9.5-10.0-1.4
2019-Sep-19 18:00N 78°48' W 142°24'0 0.0 060 / 471016.9 -9.4-9.8-1.4
2019-Sep-19 17:00N 78°48' W 142°24'1 1.2 100 / 491017.1 -9.1-9.2-1.4
2019-Sep-19 16:00N 78°48' W 142°30'0 0.0 100 / 491017.2 -9.6-9.9-1.4
2019-Sep-19 15:00N 78°48' W 142°30'0 0.0 100 / 501017.0 -9.0-9.3-1.4
2019-Sep-19 14:00N 78°48' W 142°30'1 1.2 060 / 71017.3 -7.8-8.1-1.4
2019-Sep-19 13:00N 78°48' W 142°24'1 1.2 070 / 81017.2 -7.4-7.6-1.4
2019-Sep-19 12:00N 78°48' W 142°30'0 0.0 110 1017.4 -6.4-6.5-1.4
2019-Sep-19 11:00N 78°48' W 142°30'0 0.0 090 / 111017.6 -6.4-6.4-1.4
2019-Sep-19 10:00N 78°48' W 142°30'6 6.4 080 / 461017.5 -5.4-5.5-1.4
2019-Sep-19 09:00N 78°42' W 142°42'6 6.1 080 / 151017.2 -4.8-4.9-1.4
2019-Sep-19 08:00N 78°36' W 142°48'6 6.1 070 / 161017.2 -3.9-3.9-1.4
2019-Sep-19 07:00N 78°42' W 142°42'6 6.4 060 / 131017.7 -4.3-4.3-1.4
2019-Sep-19 06:00N 78°48' W 142°30'0 0.0 330 / 31018.2 -4.1-4.3-1.4
2019-Sep-19 05:00N 78°48' W 142°30'1 1.2 280 / 21018.3 -4.1-4.4-1.4
2019-Sep-19 04:00N 78°48' W 142°24'3 3.5 070 / 131018.7 -4.5-4.5-1.4
2019-Sep-19 03:00N 78°48' W 142°06'0 0.0 050 / 31018.8 -3.8-3.8-1.4
2019-Sep-19 02:00N 78°48' W 142°06'0 0.0 160 / 21019.1 -4.1-4.2-1.4
2019-Sep-19 01:00N 78°48' W 142°06'0 0.0 120 / 521019.5 -4.0-4.0-1.4
2019-Sep-19 00:00N 78°48' W 142°06'1 1.2 360 / 871019.9 -4.7-4.7-1.4
2019-Sep-18 23:00N 78°48' W 142°00'0 0.0 070 / 471020.4 -5.2-5.3-1.4
2019-Sep-18 22:00N 78°48' W 142°00'0 0.0 220 1020.8 -5.8-5.9-1.4
2019-Sep-18 21:00N 78°48' W 142°00'0 0.0 150 1021.4 -6.3-6.5-1.4
2019-Sep-18 20:00N 78°48' W 142°00'0 0.0 230 1021.8 -7.1-7.3-1.4
2019-Sep-18 19:00N 78°48' W 142°00'0 0.0 320 / 341022.2 -7.3-7.5-1.4
2019-Sep-18 18:00N 78°48' W 142°00'6 6.1 260 / 881022.4 -7.3-7.5-1.4
2019-Sep-18 17:00N 78°54' W 141°54'0 0.0 290 1022.9 -7.8-8.1-1.4
2019-Sep-18 16:00N 78°54' W 141°54'0 0.0 240 1023.3 -8.9-9.3-1.4
2019-Sep-18 14:00N 78°54' W 141°54'0 0.0 040 / 131024.2 -6.6-6.6-1.4
2019-Sep-18 13:00N 78°54' W 141°54'0 0.0 030 / 91024.6 -4.6-4.6-1.4
2019-Sep-18 12:00N 78°54' W 141°54'0 0.0 020 / 91025.2 -5.0-5.0-1.4
2019-Sep-18 11:00N 78°54' W 141°54'0 0.0 030 / 101025.8 -5.4-5.4-1.4
2019-Sep-18 10:00N 78°54' W 141°54'0 0.0 020 / 81026.3 -5.9-5.9-1.4
2019-Sep-18 09:00N 78°54' W 141°54'0 0.0 020 / 91026.9 -6.4-6.5-1.4
2019-Sep-18 08:00N 78°54' W 141°54'0 0.0 020 / 91027.3 -7.3-7.5-1.4
2019-Sep-18 07:00N 78°54' W 141°54'0 0.0 360 / 81027.8 -9.8-10.3-1.4
2019-Sep-18 06:00N 78°54' W 141°54'0 0.0 360 / 81028.0 -10.1-10.5-1.4
2019-Sep-18 05:00N 78°54' W 141°54'1 1.2 360 / 101028.2 -10.4-11.0-1.4
2019-Sep-18 04:00N 78°54' W 141°48'1 1.2 010 / 61028.9 -9.6-10.1-1.4
2019-Sep-18 03:00N 78°54' W 141°54'0 0.0 010 / 91028.9 -10.1-10.6-1.4
2019-Sep-18 02:00N 78°54' W 141°54'1 1.2 020 / 51029.3 -9.6-10.1-1.4
2019-Sep-18 01:00N 78°54' W 141°48'0 0.0 050 / 61029.6 -8.8-9.2-1.4
2019-Sep-18 00:00N 78°54' W 141°48'0 0.0 040 / 91030.0 -8.6-9.1-1.4
2019-Sep-17 23:00N 78°54' W 141°48'0 0.0 040 / 71030.3 -8.7-9.2-1.4
2019-Sep-17 22:00N 78°54' W 141°48'0 0.0 050 / 61030.3 14.113.5-1.4
2019-Sep-17 21:00N 78°54' W 141°48'0 0.0 040 / 51030.4 -8.7-9.0-1.4
2019-Sep-17 20:00N 78°54' W 141°48'0 0.0 030 / 91030.8 -9.0-9.6-1.4
2019-Sep-17 19:00N 78°54' W 141°48'0 0.0 320 1030.6 -8.7-9.1-1.4
2019-Sep-17 18:00N 78°54' W 141°48'0 0.0 040 / 251030.4 -9.6-10.2-1.4
2019-Sep-17 17:00N 78°54' W 141°48'0 0.0 050 / 71030.3 -9.6-10.1-1.4
2019-Sep-17 16:00N 78°54' W 141°48'0 0.0 040 / 71030.2 -10.2-10.6-1.4
2019-Sep-17 15:00N 78°54' W 141°48'3 3.5 060 / 81030.1 -10.0-10.5-1.4
2019-Sep-17 14:00N 78°54' W 141°30'7 6.9 050 / 101029.9 -10.5-11.0-1.4
2019-Sep-17 13:00N 78°48' W 141°48'1 1.2 110 / 81029.1 -9.5-10.1-1.4
2019-Sep-17 12:00N 78°48' W 141°42'0 0.0 090 / 71029.5 -9.5-10.1-1.4
2019-Sep-17 11:00N 78°48' W 141°42'6 6.4 050 / 71029.1 -8.9-9.5-1.4
2019-Sep-17 10:00N 78°54' W 141°54'1212.2 220 1029.1 -8.8-9.2-1.4
2019-Sep-17 09:00N 79°06' W 142°06'6 6.1 220 1028.5 -8.9-9.6-1.4
2019-Sep-17 08:00N 79°12' W 142°12'6 6.4 140 1028.4 -8.3-8.9-1.4
2019-Sep-17 07:00N 79°18' W 142°24'1212.1 060 / 111028.2 -7.2-7.7-1.5
2019-Sep-17 06:00N 79°30' W 142°30'6 6.0 060 / 131027.9 -6.6-6.9-1.5
2019-Sep-17 05:00N 79°36' W 142°30'7 7.4 060 / 111027.8 -6.8-7.1-1.5
2019-Sep-17 04:00N 79°42' W 142°54'10 9.6 1027.1 -6.6-6.8-1.5
2019-Sep-17 03:00N 79°48' W 143°36'9 8.7 250 1026.9 -6.8-7.1-1.4
2019-Sep-17 02:00N 79°54' W 144°12'8 8.0 300 / 1141026.6 -6.0-6.0-1.4
2019-Sep-17 01:00N 80°00' W 144°42'9 8.6 280 / 1491026.2 -4.7-4.8-1.4
2019-Sep-17 00:00N 80°06' W 145°18'7 7.3 310 / 1211026.1 -3.0-3.5-1.4
2019-Sep-16 23:00N 80°12' W 145°42'7 7.2 320 / 1301025.4 -2.7-4.2-1.5
2019-Sep-16 22:00N 80°18' W 146°06'8 7.8 290 1024.6 -2.7-3.6-1.5
2019-Sep-16 21:00N 80°24' W 146°36'7 6.7 310 / 1361024.0 -3.2-3.3-1.5
2019-Sep-16 20:00N 80°30' W 146°54'1313.0 300 1023.8 -4.5-4.5-1.5
2019-Sep-16 19:00N 80°42' W 147°24'8 7.7 300 1023.5 -7.4-7.6-1.5
2019-Sep-16 18:00N 80°48' W 147°54'3 2.9 020 / 1471023.6 -6.3-6.6-1.5
2019-Sep-16 17:00N 80°48' W 148°12'6 6.1 310 1022.7 -5.4-6.3-1.5
2019-Sep-16 16:00N 80°54' W 148°18'1 0.9 090 / 231022.5 -3.2-3.8-1.5
2019-Sep-16 15:00N 80°54' W 148°12'4 3.8 220 1021.2 -3.5-4.4-1.5
2019-Sep-16 14:00N 80°54' W 148°36'3 2.8 150 / 271021.6 -2.9-2.9-1.5
2019-Sep-16 13:00N 80°54' W 148°18'1 0.9 030 / 111021.3 -2.9-3.0-1.5
2019-Sep-16 12:00N 80°54' W 148°12'3 2.8 170 / 1351020.7 -3.0-3.3-1.5
2019-Sep-16 11:00N 80°54' W 148°30'3 2.8 100 / 491020.7 -2.5-2.6-1.5
2019-Sep-16 10:00N 80°54' W 148°12'1 0.9 170 / 1451020.1 -2.4-2.4-1.5
2019-Sep-16 09:00N 80°54' W 148°18'2 1.9 020 / 1471020.0 -3.0-3.0-1.5
2019-Sep-16 08:00N 80°54' W 148°30'2 1.9 170 / 1081020.2 -3.2-3.2-1.5
2019-Sep-16 07:00N 80°54' W 148°18'0 0.0 090 / 821020.0 -3.3-3.5-1.5
2019-Sep-16 06:00N 80°54' W 148°18'0 0.0 220 / 1081019.8 -3.4-3.7-1.5
2019-Sep-16 05:00N 80°54' W 148°18'0 0.0 040 / 441019.6 -3.6-3.9-1.5
2019-Sep-16 04:00N 80°54' W 148°18'0 0.0 010 / 901019.4 -3.9-4.3-1.5
2019-Sep-16 03:00N 80°54' W 148°18'0 0.0 040 / 871019.0 -4.1-4.6-1.5
2019-Sep-16 02:00N 80°54' W 148°18'1 0.9 050 / 221018.6 -4.2-4.7-1.5
2019-Sep-16 01:00N 80°54' W 148°12'0 0.0 050 / 231018.2 -4.2-4.8-1.5
2019-Sep-16 00:00N 80°54' W 148°12'0 0.0 050 / 111017.8 -4.2-4.9-1.5
2019-Sep-15 23:00N 80°54' W 148°12'0 0.0 050 / 141017.6 -3.8-4.6-1.5
2019-Sep-15 22:00N 80°54' W 148°12'0 0.0 060 / 431017.1 -3.1-3.7-1.5
2019-Sep-15 21:00N 80°54' W 148°12'6 6.3 060 / 141 -2.1 -1.5
2019-Sep-15 20:00N 81°00' W 148°24'0 0.0 030 / 149 -2.2 -1.5
2019-Sep-15 19:00N 81°00' W 148°24'1 0.9 260 / 1091016.8 -2.6-2.6-1.4
2019-Sep-15 18:00N 81°00' W 148°18'0 0.0 250 / 1211016.8 -2.6-2.8-1.4
2019-Sep-15 17:00N 81°00' W 148°18'1 0.9 240 / 1161017.0 -2.7-3.0-1.5
2019-Sep-15 16:00N 81°00' W 148°24'6 6.3 260 1017.2 -2.6-2.9-1.4
2019-Sep-15 15:00N 80°54' W 148°36'0 0.0 330 / 1151017.7 -2.4-2.6-1.4
2019-Sep-15 14:00N 80°54' W 148°36'0 0.0 010 / 891018.1 -2.2-2.2-1.4
2019-Sep-15 13:00N 80°54' W 148°36'1 0.9 230 / 851018.8 -2.4-2.4-1.5
2019-Sep-15 12:00N 80°54' W 148°30'1 0.9 310 / 201018.7 -2.6-2.6-1.5
2019-Sep-15 11:00N 80°54' W 148°24'1 0.9 150 1019.8 -3.1-3.2-1.5
2019-Sep-15 10:00N 80°54' W 148°30'1 0.9 020 / 911020.8 -3.6-3.8-1.5
2019-Sep-15 09:00N 80°54' W 148°36'6 6.3 330 / 151021.8 -3.8-4.1-1.5
2019-Sep-15 08:00N 81°00' W 148°48'3 2.8 070 1022.5 -4.3-4.9-1.5
2019-Sep-15 07:00N 81°00' W 149°06'3 2.8 300 1022.7 -4.9-5.2-1.5
2019-Sep-15 06:00N 81°00' W 149°24'7 6.6 320 / 81023.3 -5.3-5.6-1.5
2019-Sep-15 05:00N 81°06' W 149°42'7 7.1 150 1023.9 -5.3-5.7-1.5
2019-Sep-15 04:00N 81°00' W 150°06'5 4.7 270 / 51024.1 -5.9-6.1-1.5
2019-Sep-15 03:00N 81°00' W 149°36'7 7.1 240 / 41024.3 -6.9-7.4-1.5
2019-Sep-15 02:00N 80°54' W 149°12'4 3.8 350 / 61024.5 -6.9-7.4-1.5
2019-Sep-15 01:00N 80°54' W 148°48'0 0.0 240 / 41024.8 -7.1-7.8-1.5
2019-Sep-15 00:00N 80°54' W 148°48'1 0.9 340 / 31025.1 -7.2-7.7-1.5
2019-Sep-14 23:00N 80°54' W 148°54'0 0.0 010 1025.3 -7.3-7.8-1.5
2019-Sep-14 22:00N 80°54' W 148°54'1 0.9 010 1025.6 -8.1-8.6-1.5
2019-Sep-14 21:00N 80°54' W 148°48'0 0.0 020 1025.5 -8.1-8.5-1.4
2019-Sep-14 20:00N 80°54' W 148°48'0 0.0 030 1025.3 -8.0-8.5-1.5
2019-Sep-14 19:00N 80°54' W 148°48'6 6.1 340 1025.3 -8.9-9.4-1.5
2019-Sep-14 18:00N 80°48' W 148°42'4 3.8 070 / 31025.3 -9.1-9.6-1.5
2019-Sep-14 17:00N 80°48' W 148°18'4 3.8 070 / 31025.4 -9.5-9.8-1.5
2019-Sep-14 16:00N 80°48' W 147°54'6 6.1 240 1025.5 -9.1-9.1-1.5
2019-Sep-14 15:00N 80°54' W 148°00'5 4.7 010 1025.5 -9.9-10.3-1.5
2019-Sep-14 14:00N 80°54' W 148°30'0 0.0 360 1025.6 -10.0-10.5-1.5
2019-Sep-14 13:00N 80°54' W 148°30'2 1.9 150 1025.8 -9.7-10.1-1.5
2019-Sep-14 12:00N 80°54' W 148°18'7 6.6 040 1025.7 -9.5-9.9-1.5
2019-Sep-14 11:00N 81°00' W 148°36'6 6.1 320 1025.5 -9.3-9.8-1.5
2019-Sep-14 10:00N 80°54' W 148°30'7 6.6 240 1025.5 -9.6-9.8-1.5
2019-Sep-14 09:00N 80°48' W 148°12'7 6.7 260 1025.3 -9.0-9.2-1.5
2019-Sep-14 08:00N 80°42' W 147°54'8 7.7 110 / 91025.2 -9.5-9.9-1.5
2019-Sep-14 07:00N 80°36' W 147°24'3 2.9 190 1025.0 -8.5-8.8-1.5
2019-Sep-14 06:00N 80°36' W 147°06'7 7.2 210 1024.7 -7.9-8.3-1.4
2019-Sep-14 05:00N 80°30' W 146°42'7 7.2 160 1024.4 -7.6-7.9-1.5
2019-Sep-14 04:00N 80°24' W 146°18'7 6.7 180 1024.5 -6.8-7.2-1.5
2019-Sep-14 03:00N 80°18' W 146°00'7 7.2 110 / 81024.5 -6.6-7.0-1.5
2019-Sep-14 02:00N 80°12' W 145°36'7 6.7 180 1024.5 -6.0-6.3-1.5
2019-Sep-14 01:00N 80°06' W 145°18'7 6.8 200 1024.6 -5.7-6.1-1.5
2019-Sep-14 00:00N 80°00' W 145°00'7 6.8 190 1024.5 -5.4-5.9-1.4
2019-Sep-13 23:00N 79°54' W 144°42'7 7.3 270 1024.2 -4.9-5.3 1.2
2019-Sep-13 22:00N 79°48' W 144°18'7 7.4 310 1024.0 -5.2-5.7 0.5
2019-Sep-13 21:00N 79°42' W 143°54'7 6.8 280 1023.7 -5.2-5.6 0.8
2019-Sep-13 20:00N 79°36' W 143°36'1212.4 300 / 1021023.3 -5.5-5.8 0.1
2019-Sep-13 19:00N 79°24' W 143°18'7 6.9 300 1022.9 -6.4-6.6-0.7
2019-Sep-13 18:00N 79°18' W 143°00'7 7.5 090 / 81022.8 -6.6-6.9-1.4
2019-Sep-13 17:00N 79°12' W 142°36'7 6.9 300 1022.3 -6.9-7.3-1.4
2019-Sep-13 16:00N 79°06' W 142°18'7 6.9 240 / 1251021.8 -7.0-7.3-1.4
2019-Sep-13 15:00N 79°00' W 142°00'7 6.9 010 / 781022.0 -7.4-7.7-1.5
2019-Sep-13 14:00N 78°54' W 141°42'7 6.9 290 / 661021.5 -7.6-8.0-1.4
2019-Sep-13 13:00N 78°48' W 141°24'1312.5 210 / 1261021.3 -7.2-7.5-1.4
2019-Sep-13 12:00N 78°36' W 141°06'1 1.2 290 / 451020.9 -6.3-6.5-1.4
2019-Sep-13 11:00N 78°36' W 141°00'7 7.0 220 / 621020.8 -6.3-6.5-1.4
2019-Sep-13 10:00N 78°30' W 140°42'7 7.0 150 / 1411020.4 -5.3-5.3-1.4
2019-Sep-13 09:00N 78°24' W 140°24'6 6.1 140 / 721020.1 -5.2-5.3-1.4
2019-Sep-13 08:00N 78°18' W 140°18'8 7.7 160 / 891019.2 -4.9-5.1-1.4
2019-Sep-13 07:00N 78°12' W 139°54'1313.0 140 / 1001018.9 -3.6-3.9-1.4
2019-Sep-13 06:00N 78°00' W 139°30'7 6.5 150 / 681018.2 -3.2-3.4-1.4
2019-Sep-13 05:00N 77°54' W 139°18'6 6.0 140 / 631017.8 -3.2-3.3-1.4
2019-Sep-13 04:00N 77°48' W 139°18'1 1.3 160 / 941017.6 -2.6-2.7-1.4
2019-Sep-13 03:00N 77°48' W 139°12'6 6.0 170 / 971017.5 -2.4-2.5-1.4
2019-Sep-13 02:00N 77°42' W 139°12'0 0.0 130 1017.5 -2.2-2.5-1.3
2019-Sep-13 01:00N 77°42' W 139°12'0 0.0 140 / 1301017.7 -2.3-2.6-1.4
2019-Sep-13 00:00N 77°42' W 139°12'0 0.0 220 / 741017.6 -2.6-2.9-1.3
2019-Sep-12 23:00N 77°42' W 139°12'9 8.9 230 / 311017.0 -2.5-2.7-1.4
2019-Sep-12 22:00N 77°42' W 139°54'1211.9 140 / 331016.3 7.3 7.1-1.4
2019-Sep-12 21:00N 77°36' W 140°42'1212.0 260 / 861016.6 -1.8-1.9-1.4
2019-Sep-12 20:00N 77°30' W 141°30'10 9.9 280 / 451015.9 -2.0-2.0-1.4
2019-Sep-12 19:00N 77°24' W 142°06'7 6.5 260 / 351016.5 -2.0-2.0-1.3
2019-Sep-12 18:00N 77°24' W 142°36'1010.5 310 / 421016.0 -1.9-1.9-1.3
2019-Sep-12 17:00N 77°24' W 143°24'1211.8 290 / 391016.2 -1.6-1.7-1.2
2019-Sep-12 16:00N 77°24' W 144°18'65 4.3 340 / 391016.2 -1.5-1.5-1.0
2019-Sep-12 01:00N 77°42' W 149°06'1 1.3 220 / 851015.1 -0.8 -0.9
2019-Sep-12 00:00N 77°42' W 149°12'1 1.3 070 / 171015.5 -0.8 -0.9
2019-Sep-11 23:00N 77°42' W 149°18'0 0.0 070 / 131015.3 -0.9 -0.8
2019-Sep-11 22:00N 77°42' W 149°18'1 1.3 080 / 131015.2 -1.0 -1.0
2019-Sep-11 21:00N 77°42' W 149°24'6 6.1 070 / 131015.0 -1.1 -0.9
2019-Sep-11 20:00N 77°48' W 149°30'1 1.3 070 / 131015.0 -1.1 -0.9
2019-Sep-11 19:00N 77°48' W 149°36'1 1.3 070 / 131014.8 -1.3 -0.8
2019-Sep-11 18:00N 77°48' W 149°42'0 0.0 070 / 141014.7 -1.3 -0.6
2019-Sep-11 17:00N 77°48' W 149°42'   070 / 151014.8 -1.3 -0.3
Track history (hours):
 
Tides and Currents Weather Stations Pressure Air Temp Water Temp Dewpoint Dewpoint Depression Visibility Wind Speed Wind Dir Waves Ship Positions

Oceanographic research ship USCGC Healy (USA)

Detailed information on ship capabilities available from University of Delaware's Ocean Information Center and ARCUS's ALIAS (Arctic Logistics Information and Support) project.

Last reported at 2019-Sep-21 17:00 UTC. Time now 2019-Sep-21 18:09 UTC.
Position N 76°36' W 140°06'.

Type: Military. MMSI: 303902000.

AWS

Wind from 070 at 23 knots

Barometer 1010.9 mb
Air temperature -3.7 ° C
Dewpoint -3.9 ° C
Water temperature -1.4 ° C

Date/timePositionNaut miles runAvg speedWind from/ knotsBaromVisibWave heightAir tempDewpointWater temp
2019-Sep-21 17:00N 76°36' W 140°06'3 2.8 070 / 231010.9 -3.7-3.9-1.4
2019-Sep-21 16:00N 76°36' W 139°54'1 1.4 080 / 181011.5 -6.8-6.9-1.4
2019-Sep-21 15:00N 76°36' W 140°00'0 0.0 070 / 171011.1 -3.6-3.6-1.4
2019-Sep-21 14:00N 76°36' W 140°00'0 0.0 340 / 351010.6 -3.9-3.9-1.4
2019-Sep-21 13:00N 76°36' W 140°00'0 0.0 070 / 131010.6 -4.1-4.1-1.4
2019-Sep-21 12:00N 76°36' W 140°00'4 4.2 100 / 781011.0 -3.7-3.8-1.4
2019-Sep-21 11:00N 76°36' W 140°18'7 6.6 350 / 281011.0 -3.8-3.8-1.4
2019-Sep-21 10:00N 76°42' W 140°30'1313.2 060 / 121011.5 -3.9-3.9-1.4
2019-Sep-21 09:00N 76°54' W 140°54'8 8.1 050 / 121011.4 -3.6-3.6-1.4
2019-Sep-21 08:00N 77°00' W 141°18'7 7.2 220 / 381011.6 -3.7-3.7-1.4
2019-Sep-21 07:00N 77°06' W 141°36'9 9.0 120 / 231011.7 -3.1-3.1-1.4
2019-Sep-21 06:00N 77°12' W 142°06'7 7.2 020 / 71011.8 -3.0-3.0-1.4
2019-Sep-21 05:00N 77°18' W 142°24'8 8.0 040 / 101012.0 -3.4-3.4-1.4
2019-Sep-21 04:00N 77°24' W 142°48'8 7.9 040 / 101012.0 -4.1-4.1-1.4
2019-Sep-21 03:00N 77°30' W 143°12'8 7.9 210 1012.4 -5.1-5.1-1.4
2019-Sep-21 02:00N 77°36' W 143°36'9 8.8 050 / 171012.6 -6.6-6.8-1.4
2019-Sep-21 01:00N 77°42' W 144°06'8 7.9 050 / 171013.0 -7.6-7.9-1.4
2019-Sep-21 00:00N 77°48' W 144°30'9 8.7 050 / 191013.6 -8.4-8.8-1.4
2019-Sep-20 23:00N 77°54' W 145°00'6 6.1 060 / 151013.9 -7.8-8.3-1.4
2019-Sep-20 22:00N 78°00' W 145°06'1 1.2 040 / 21014.6 -6.5-7.0-1.3
2019-Sep-20 21:00N 78°00' W 145°00'0 0.0 030 / 31014.4 -6.2-7.2-1.3
2019-Sep-20 20:00N 78°00' W 145°00'0 0.0 250 / 131014.4 -6.3-7.6-1.3
2019-Sep-20 19:00N 78°00' W 145°00'1 1.2 340 / 521014.3 -6.7-8.1-1.4
2019-Sep-20 18:00N 78°00' W 144°54'0 0.0 350 / 851014.2 -6.8-8.0-1.4
2019-Sep-20 17:00N 78°00' W 144°54'0 0.0 330 1014.0 -7.0-8.1-1.4
2019-Sep-20 16:00N 78°00' W 144°54'1 1.2 290 1014.0 -7.1-8.3-1.4
2019-Sep-20 15:00N 78°00' W 144°48'0 0.0 270 1014.2 -7.3-8.2-1.3
2019-Sep-20 14:00N 78°00' W 144°48'0 0.0 330 1014.3 -7.5-8.2-1.3
2019-Sep-20 13:00N 78°00' W 144°48'0 0.0 300 1014.5 -7.6-8.3-1.3
2019-Sep-20 12:00N 78°00' W 144°48'1 1.2 080 / 161014.6 -7.6-8.4-1.3
2019-Sep-20 11:00N 78°00' W 144°42'0 0.0 080 / 181014.5 -7.5-8.2-1.2
2019-Sep-20 10:00N 78°00' W 144°42'0 0.0 080 / 171014.5 -7.7-9.0-1.3
2019-Sep-20 09:00N 78°00' W 144°42'0 0.0 090 / 181014.4 -7.7-8.9-1.2
2019-Sep-20 08:00N 78°00' W 144°42'1 1.2 080 / 191014.4 -7.6-8.6-1.3
2019-Sep-20 07:00N 78°00' W 144°36'0 0.0 090 / 171014.3 -7.6-8.4-1.4
2019-Sep-20 06:00N 78°00' W 144°36'0 0.0 090 / 161014.4 -7.1-7.8-1.3
2019-Sep-20 05:00N 78°00' W 144°36'1 1.2 300 1014.3 -6.7-7.5-1.3
2019-Sep-20 04:00N 78°00' W 144°30'0 0.0 080 / 161014.3 -6.8-7.5-1.3
2019-Sep-20 03:00N 78°00' W 144°30'1 1.2 090 / 171014.3 -6.5-7.1-1.2
2019-Sep-20 02:00N 78°00' W 144°24'7 7.1 080 / 101014.4 -6.8-7.0-1.4
2019-Sep-20 01:00N 78°06' W 144°06'6 6.1 110 1014.5 -7.3-7.7-1.3
2019-Sep-20 00:00N 78°12' W 144°00'7 7.0 130 1014.5 -7.7-8.2-1.1
2019-Sep-19 23:00N 78°18' W 143°42'6 6.5 230 / 1481015.3 -8.4-8.7-1.2
2019-Sep-19 22:00N 78°24' W 143°30'8 7.7 230 / 591015.7 -8.2-8.6-1.4
2019-Sep-19 21:00N 78°30' W 143°06'1312.5 210 / 701015.9 -8.4-8.5-1.4
2019-Sep-19 20:00N 78°42' W 142°48'6 6.4 180 / 441016.3 -9.6-10.1-1.4
2019-Sep-19 19:00N 78°48' W 142°36'2 2.3 190 / 271016.6 -9.5-10.0-1.4
2019-Sep-19 18:00N 78°48' W 142°24'0 0.0 060 / 471016.9 -9.4-9.8-1.4
2019-Sep-19 17:00N 78°48' W 142°24'1 1.2 100 / 491017.1 -9.1-9.2-1.4
2019-Sep-19 16:00N 78°48' W 142°30'0 0.0 100 / 491017.2 -9.6-9.9-1.4
2019-Sep-19 15:00N 78°48' W 142°30'0 0.0 100 / 501017.0 -9.0-9.3-1.4
2019-Sep-19 14:00N 78°48' W 142°30'1 1.2 060 / 71017.3 -7.8-8.1-1.4
2019-Sep-19 13:00N 78°48' W 142°24'1 1.2 070 / 81017.2 -7.4-7.6-1.4
2019-Sep-19 12:00N 78°48' W 142°30'0 0.0 110 1017.4 -6.4-6.5-1.4
2019-Sep-19 11:00N 78°48' W 142°30'0 0.0 090 / 111017.6 -6.4-6.4-1.4
2019-Sep-19 10:00N 78°48' W 142°30'6 6.4 080 / 461017.5 -5.4-5.5-1.4
2019-Sep-19 09:00N 78°42' W 142°42'6 6.1 080 / 151017.2 -4.8-4.9-1.4
2019-Sep-19 08:00N 78°36' W 142°48'6 6.1 070 / 161017.2 -3.9-3.9-1.4
2019-Sep-19 07:00N 78°42' W 142°42'6 6.4 060 / 131017.7 -4.3-4.3-1.4
2019-Sep-19 06:00N 78°48' W 142°30'0 0.0 330 / 31018.2 -4.1-4.3-1.4
2019-Sep-19 05:00N 78°48' W 142°30'1 1.2 280 / 21018.3 -4.1-4.4-1.4
2019-Sep-19 04:00N 78°48' W 142°24'3 3.5 070 / 131018.7 -4.5-4.5-1.4
2019-Sep-19 03:00N 78°48' W 142°06'0 0.0 050 / 31018.8 -3.8-3.8-1.4
2019-Sep-19 02:00N 78°48' W 142°06'0 0.0 160 / 21019.1 -4.1-4.2-1.4
2019-Sep-19 01:00N 78°48' W 142°06'0 0.0 120 / 521019.5 -4.0-4.0-1.4
2019-Sep-19 00:00N 78°48' W 142°06'1 1.2 360 / 871019.9 -4.7-4.7-1.4
2019-Sep-18 23:00N 78°48' W 142°00'0 0.0 070 / 471020.4 -5.2-5.3-1.4
2019-Sep-18 22:00N 78°48' W 142°00'0 0.0 220 1020.8 -5.8-5.9-1.4
2019-Sep-18 21:00N 78°48' W 142°00'0 0.0 150 1021.4 -6.3-6.5-1.4
2019-Sep-18 20:00N 78°48' W 142°00'0 0.0 230 1021.8 -7.1-7.3-1.4
2019-Sep-18 19:00N 78°48' W 142°00'0 0.0 320 / 341022.2 -7.3-7.5-1.4
2019-Sep-18 18:00N 78°48' W 142°00'6 6.1 260 / 881022.4 -7.3-7.5-1.4
2019-Sep-18 17:00N 78°54' W 141°54'0 0.0 290 1022.9 -7.8-8.1-1.4
2019-Sep-18 16:00N 78°54' W 141°54'0 0.0 240 1023.3 -8.9-9.3-1.4
2019-Sep-18 14:00N 78°54' W 141°54'0 0.0 040 / 131024.2 -6.6-6.6-1.4
2019-Sep-18 13:00N 78°54' W 141°54'0 0.0 030 / 91024.6 -4.6-4.6-1.4
2019-Sep-18 12:00N 78°54' W 141°54'0 0.0 020 / 91025.2 -5.0-5.0-1.4
2019-Sep-18 11:00N 78°54' W 141°54'0 0.0 030 / 101025.8 -5.4-5.4-1.4
2019-Sep-18 10:00N 78°54' W 141°54'0 0.0 020 / 81026.3 -5.9-5.9-1.4
2019-Sep-18 09:00N 78°54' W 141°54'0 0.0 020 / 91026.9 -6.4-6.5-1.4
2019-Sep-18 08:00N 78°54' W 141°54'0 0.0 020 / 91027.3 -7.3-7.5-1.4
2019-Sep-18 07:00N 78°54' W 141°54'0 0.0 360 / 81027.8 -9.8-10.3-1.4
2019-Sep-18 06:00N 78°54' W 141°54'0 0.0 360 / 81028.0 -10.1-10.5-1.4
2019-Sep-18 05:00N 78°54' W 141°54'1 1.2 360 / 101028.2 -10.4-11.0-1.4
2019-Sep-18 04:00N 78°54' W 141°48'1 1.2 010 / 61028.9 -9.6-10.1-1.4
2019-Sep-18 03:00N 78°54' W 141°54'0 0.0 010 / 91028.9 -10.1-10.6-1.4
2019-Sep-18 02:00N 78°54' W 141°54'1 1.2 020 / 51029.3 -9.6-10.1-1.4
2019-Sep-18 01:00N 78°54' W 141°48'0 0.0 050 / 61029.6 -8.8-9.2-1.4
2019-Sep-18 00:00N 78°54' W 141°48'0 0.0 040 / 91030.0 -8.6-9.1-1.4
2019-Sep-17 23:00N 78°54' W 141°48'0 0.0 040 / 71030.3 -8.7-9.2-1.4
2019-Sep-17 22:00N 78°54' W 141°48'0 0.0 050 / 61030.3 14.113.5-1.4
2019-Sep-17 21:00N 78°54' W 141°48'0 0.0 040 / 51030.4 -8.7-9.0-1.4
2019-Sep-17 20:00N 78°54' W 141°48'0 0.0 030 / 91030.8 -9.0-9.6-1.4
2019-Sep-17 19:00N 78°54' W 141°48'0 0.0 320 1030.6 -8.7-9.1-1.4
2019-Sep-17 18:00N 78°54' W 141°48'0 0.0 040 / 251030.4 -9.6-10.2-1.4
2019-Sep-17 17:00N 78°54' W 141°48'0 0.0 050 / 71030.3 -9.6-10.1-1.4
2019-Sep-17 16:00N 78°54' W 141°48'0 0.0 040 / 71030.2 -10.2-10.6-1.4
2019-Sep-17 15:00N 78°54' W 141°48'3 3.5 060 / 81030.1 -10.0-10.5-1.4
2019-Sep-17 14:00N 78°54' W 141°30'7 6.9 050 / 101029.9 -10.5-11.0-1.4
2019-Sep-17 13:00N 78°48' W 141°48'1 1.2 110 / 81029.1 -9.5-10.1-1.4
2019-Sep-17 12:00N 78°48' W 141°42'0 0.0 090 / 71029.5 -9.5-10.1-1.4
2019-Sep-17 11:00N 78°48' W 141°42'6 6.4 050 / 71029.1 -8.9-9.5-1.4
2019-Sep-17 10:00N 78°54' W 141°54'1212.2 220 1029.1 -8.8-9.2-1.4
2019-Sep-17 09:00N 79°06' W 142°06'6 6.1 220 1028.5 -8.9-9.6-1.4
2019-Sep-17 08:00N 79°12' W 142°12'6 6.4 140 1028.4 -8.3-8.9-1.4
2019-Sep-17 07:00N 79°18' W 142°24'1212.1 060 / 111028.2 -7.2-7.7-1.5
2019-Sep-17 06:00N 79°30' W 142°30'6 6.0 060 / 131027.9 -6.6-6.9-1.5
2019-Sep-17 05:00N 79°36' W 142°30'7 7.4 060 / 111027.8 -6.8-7.1-1.5
2019-Sep-17 04:00N 79°42' W 142°54'10 9.6 1027.1 -6.6-6.8-1.5
2019-Sep-17 03:00N 79°48' W 143°36'9 8.7 250 1026.9 -6.8-7.1-1.4
2019-Sep-17 02:00N 79°54' W 144°12'8 8.0 300 / 1141026.6 -6.0-6.0-1.4
2019-Sep-17 01:00N 80°00' W 144°42'9 8.6 280 / 1491026.2 -4.7-4.8-1.4
2019-Sep-17 00:00N 80°06' W 145°18'7 7.3 310 / 1211026.1 -3.0-3.5-1.4
2019-Sep-16 23:00N 80°12' W 145°42'7 7.2 320 / 1301025.4 -2.7-4.2-1.5
2019-Sep-16 22:00N 80°18' W 146°06'8 7.8 290 1024.6 -2.7-3.6-1.5
2019-Sep-16 21:00N 80°24' W 146°36'7 6.7 310 / 1361024.0 -3.2-3.3-1.5
2019-Sep-16 20:00N 80°30' W 146°54'1313.0 300 1023.8 -4.5-4.5-1.5
2019-Sep-16 19:00N 80°42' W 147°24'8 7.7 300 1023.5 -7.4-7.6-1.5
2019-Sep-16 18:00N 80°48' W 147°54'3 2.9 020 / 1471023.6 -6.3-6.6-1.5
2019-Sep-16 17:00N 80°48' W 148°12'6 6.1 310 1022.7 -5.4-6.3-1.5
2019-Sep-16 16:00N 80°54' W 148°18'1 0.9 090 / 231022.5 -3.2-3.8-1.5
2019-Sep-16 15:00N 80°54' W 148°12'4 3.8 220 1021.2 -3.5-4.4-1.5
2019-Sep-16 14:00N 80°54' W 148°36'3 2.8 150 / 271021.6 -2.9-2.9-1.5
2019-Sep-16 13:00N 80°54' W 148°18'1 0.9 030 / 111021.3 -2.9-3.0-1.5
2019-Sep-16 12:00N 80°54' W 148°12'3 2.8 170 / 1351020.7 -3.0-3.3-1.5
2019-Sep-16 11:00N 80°54' W 148°30'3 2.8 100 / 491020.7 -2.5-2.6-1.5
2019-Sep-16 10:00N 80°54' W 148°12'1 0.9 170 / 1451020.1 -2.4-2.4-1.5
2019-Sep-16 09:00N 80°54' W 148°18'2 1.9 020 / 1471020.0 -3.0-3.0-1.5
2019-Sep-16 08:00N 80°54' W 148°30'2 1.9 170 / 1081020.2 -3.2-3.2-1.5
2019-Sep-16 07:00N 80°54' W 148°18'0 0.0 090 / 821020.0 -3.3-3.5-1.5
2019-Sep-16 06:00N 80°54' W 148°18'0 0.0 220 / 1081019.8 -3.4-3.7-1.5
2019-Sep-16 05:00N 80°54' W 148°18'0 0.0 040 / 441019.6 -3.6-3.9-1.5
2019-Sep-16 04:00N 80°54' W 148°18'0 0.0 010 / 901019.4 -3.9-4.3-1.5
2019-Sep-16 03:00N 80°54' W 148°18'0 0.0 040 / 871019.0 -4.1-4.6-1.5
2019-Sep-16 02:00N 80°54' W 148°18'1 0.9 050 / 221018.6 -4.2-4.7-1.5
2019-Sep-16 01:00N 80°54' W 148°12'0 0.0 050 / 231018.2 -4.2-4.8-1.5
2019-Sep-16 00:00N 80°54' W 148°12'0 0.0 050 / 111017.8 -4.2-4.9-1.5
2019-Sep-15 23:00N 80°54' W 148°12'0 0.0 050 / 141017.6 -3.8-4.6-1.5
2019-Sep-15 22:00N 80°54' W 148°12'0 0.0 060 / 431017.1 -3.1-3.7-1.5
2019-Sep-15 21:00N 80°54' W 148°12'6 6.3 060 / 141 -2.1 -1.5
2019-Sep-15 20:00N 81°00' W 148°24'0 0.0 030 / 149 -2.2 -1.5
2019-Sep-15 19:00N 81°00' W 148°24'1 0.9 260 / 1091016.8 -2.6-2.6-1.4
2019-Sep-15 18:00N 81°00' W 148°18'0 0.0 250 / 1211016.8 -2.6-2.8-1.4
2019-Sep-15 17:00N 81°00' W 148°18'1 0.9 240 / 1161017.0 -2.7-3.0-1.5
2019-Sep-15 16:00N 81°00' W 148°24'6 6.3 260 1017.2 -2.6-2.9-1.4
2019-Sep-15 15:00N 80°54' W 148°36'0 0.0 330 / 1151017.7 -2.4-2.6-1.4
2019-Sep-15 14:00N 80°54' W 148°36'0 0.0 010 / 891018.1 -2.2-2.2-1.4
2019-Sep-15 13:00N 80°54' W 148°36'1 0.9 230 / 851018.8 -2.4-2.4-1.5
2019-Sep-15 12:00N 80°54' W 148°30'1 0.9 310 / 201018.7 -2.6-2.6-1.5
2019-Sep-15 11:00N 80°54' W 148°24'1 0.9 150 1019.8 -3.1-3.2-1.5
2019-Sep-15 10:00N 80°54' W 148°30'1 0.9 020 / 911020.8 -3.6-3.8-1.5
2019-Sep-15 09:00N 80°54' W 148°36'6 6.3 330 / 151021.8 -3.8-4.1-1.5
2019-Sep-15 08:00N 81°00' W 148°48'3 2.8 070 1022.5 -4.3-4.9-1.5
2019-Sep-15 07:00N 81°00' W 149°06'3 2.8 300 1022.7 -4.9-5.2-1.5
2019-Sep-15 06:00N 81°00' W 149°24'7 6.6 320 / 81023.3 -5.3-5.6-1.5
2019-Sep-15 05:00N 81°06' W 149°42'7 7.1 150 1023.9 -5.3-5.7-1.5
2019-Sep-15 04:00N 81°00' W 150°06'5 4.7 270 / 51024.1 -5.9-6.1-1.5
2019-Sep-15 03:00N 81°00' W 149°36'7 7.1 240 / 41024.3 -6.9-7.4-1.5
2019-Sep-15 02:00N 80°54' W 149°12'4 3.8 350 / 61024.5 -6.9-7.4-1.5
2019-Sep-15 01:00N 80°54' W 148°48'0 0.0 240 / 41024.8 -7.1-7.8-1.5
2019-Sep-15 00:00N 80°54' W 148°48'1 0.9 340 / 31025.1 -7.2-7.7-1.5
2019-Sep-14 23:00N 80°54' W 148°54'0 0.0 010 1025.3 -7.3-7.8-1.5
2019-Sep-14 22:00N 80°54' W 148°54'1 0.9 010 1025.6 -8.1-8.6-1.5
2019-Sep-14 21:00N 80°54' W 148°48'0 0.0 020 1025.5 -8.1-8.5-1.4
2019-Sep-14 20:00N 80°54' W 148°48'0 0.0 030 1025.3 -8.0-8.5-1.5
2019-Sep-14 19:00N 80°54' W 148°48'6 6.1 340 1025.3 -8.9-9.4-1.5
2019-Sep-14 18:00N 80°48' W 148°42'4 3.8 070 / 31025.3 -9.1-9.6-1.5
2019-Sep-14 17:00N 80°48' W 148°18'4 3.8 070 / 31025.4 -9.5-9.8-1.5
2019-Sep-14 16:00N 80°48' W 147°54'6 6.1 240 1025.5 -9.1-9.1-1.5
2019-Sep-14 15:00N 80°54' W 148°00'5 4.7 010 1025.5 -9.9-10.3-1.5
2019-Sep-14 14:00N 80°54' W 148°30'0 0.0 360 1025.6 -10.0-10.5-1.5
2019-Sep-14 13:00N 80°54' W 148°30'2 1.9 150 1025.8 -9.7-10.1-1.5
2019-Sep-14 12:00N 80°54' W 148°18'7 6.6 040 1025.7 -9.5-9.9-1.5
2019-Sep-14 11:00N 81°00' W 148°36'6 6.1 320 1025.5 -9.3-9.8-1.5
2019-Sep-14 10:00N 80°54' W 148°30'7 6.6 240 1025.5 -9.6-9.8-1.5
2019-Sep-14 09:00N 80°48' W 148°12'7 6.7 260 1025.3 -9.0-9.2-1.5
2019-Sep-14 08:00N 80°42' W 147°54'8 7.7 110 / 91025.2 -9.5-9.9-1.5
2019-Sep-14 07:00N 80°36' W 147°24'3 2.9 190 1025.0 -8.5-8.8-1.5
2019-Sep-14 06:00N 80°36' W 147°06'7 7.2 210 1024.7 -7.9-8.3-1.4
2019-Sep-14 05:00N 80°30' W 146°42'7 7.2 160 1024.4 -7.6-7.9-1.5
2019-Sep-14 04:00N 80°24' W 146°18'7 6.7 180 1024.5 -6.8-7.2-1.5
2019-Sep-14 03:00N 80°18' W 146°00'7 7.2 110 / 81024.5 -6.6-7.0-1.5
2019-Sep-14 02:00N 80°12' W 145°36'7 6.7 180 1024.5 -6.0-6.3-1.5
2019-Sep-14 01:00N 80°06' W 145°18'7 6.8 200 1024.6 -5.7-6.1-1.5
2019-Sep-14 00:00N 80°00' W 145°00'7 6.8 190 1024.5 -5.4-5.9-1.4
2019-Sep-13 23:00N 79°54' W 144°42'7 7.3 270 1024.2 -4.9-5.3 1.2
2019-Sep-13 22:00N 79°48' W 144°18'7 7.4 310 1024.0 -5.2-5.7 0.5
2019-Sep-13 21:00N 79°42' W 143°54'7 6.8 280 1023.7 -5.2-5.6 0.8
2019-Sep-13 20:00N 79°36' W 143°36'1212.4 300 / 1021023.3 -5.5-5.8 0.1
2019-Sep-13 19:00N 79°24' W 143°18'7 6.9 300 1022.9 -6.4-6.6-0.7
2019-Sep-13 18:00N 79°18' W 143°00'7 7.5 090 / 81022.8 -6.6-6.9-1.4
2019-Sep-13 17:00N 79°12' W 142°36'7 6.9 300 1022.3 -6.9-7.3-1.4
2019-Sep-13 16:00N 79°06' W 142°18'7 6.9 240 / 1251021.8 -7.0-7.3-1.4
2019-Sep-13 15:00N 79°00' W 142°00'7 6.9 010 / 781022.0 -7.4-7.7-1.5
2019-Sep-13 14:00N 78°54' W 141°42'7 6.9 290 / 661021.5 -7.6-8.0-1.4
2019-Sep-13 13:00N 78°48' W 141°24'1312.5 210 / 1261021.3 -7.2-7.5-1.4
2019-Sep-13 12:00N 78°36' W 141°06'1 1.2 290 / 451020.9 -6.3-6.5-1.4
2019-Sep-13 11:00N 78°36' W 141°00'7 7.0 220 / 621020.8 -6.3-6.5-1.4
2019-Sep-13 10:00N 78°30' W 140°42'7 7.0 150 / 1411020.4 -5.3-5.3-1.4
2019-Sep-13 09:00N 78°24' W 140°24'6 6.1 140 / 721020.1 -5.2-5.3-1.4
2019-Sep-13 08:00N 78°18' W 140°18'8 7.7 160 / 891019.2 -4.9-5.1-1.4
2019-Sep-13 07:00N 78°12' W 139°54'1313.0 140 / 1001018.9 -3.6-3.9-1.4
2019-Sep-13 06:00N 78°00' W 139°30'7 6.5 150 / 681018.2 -3.2-3.4-1.4
2019-Sep-13 05:00N 77°54' W 139°18'6 6.0 140 / 631017.8 -3.2-3.3-1.4
2019-Sep-13 04:00N 77°48' W 139°18'1 1.3 160 / 941017.6 -2.6-2.7-1.4
2019-Sep-13 03:00N 77°48' W 139°12'6 6.0 170 / 971017.5 -2.4-2.5-1.4
2019-Sep-13 02:00N 77°42' W 139°12'0 0.0 130 1017.5 -2.2-2.5-1.3
2019-Sep-13 01:00N 77°42' W 139°12'0 0.0 140 / 1301017.7 -2.3-2.6-1.4
2019-Sep-13 00:00N 77°42' W 139°12'0 0.0 220 / 741017.6 -2.6-2.9-1.3
2019-Sep-12 23:00N 77°42' W 139°12'9 8.9 230 / 311017.0 -2.5-2.7-1.4
2019-Sep-12 22:00N 77°42' W 139°54'1211.9 140 / 331016.3 7.3 7.1-1.4
2019-Sep-12 21:00N 77°36' W 140°42'1212.0 260 / 861016.6 -1.8-1.9-1.4
2019-Sep-12 20:00N 77°30' W 141°30'10 9.9 280 / 451015.9 -2.0-2.0-1.4
2019-Sep-12 19:00N 77°24' W 142°06'7 6.5 260 / 351016.5 -2.0-2.0-1.3
2019-Sep-12 18:00N 77°24' W 142°36'1010.5 310 / 421016.0 -1.9-1.9-1.3
2019-Sep-12 17:00N 77°24' W 143°24'1211.8 290 / 391016.2 -1.6-1.7-1.2
2019-Sep-12 16:00N 77°24' W 144°18'65 4.3 340 / 391016.2 -1.5-1.5-1.0
2019-Sep-12 01:00N 77°42' W 149°06'1 1.3 220 / 851015.1 -0.8 -0.9
2019-Sep-12 00:00N 77°42' W 149°12'1 1.3 070 / 171015.5 -0.8 -0.9
2019-Sep-11 23:00N 77°42' W 149°18'0 0.0 070 / 131015.3 -0.9 -0.8
2019-Sep-11 22:00N 77°42' W 149°18'1 1.3 080 / 131015.2 -1.0 -1.0
2019-Sep-11 21:00N 77°42' W 149°24'6 6.1 070 / 131015.0 -1.1 -0.9
2019-Sep-11 20:00N 77°48' W 149°30'1 1.3 070 / 131015.0 -1.1 -0.9
2019-Sep-11 19:00N 77°48' W 149°36'1 1.3 070 / 131014.8 -1.3 -0.8
2019-Sep-11 18:00N 77°48' W 149°42'0 0.0 070 / 141014.7 -1.3 -0.6
2019-Sep-11 17:00N 77°48' W 149°42'   070 / 151014.8 -1.3 -0.3

Dump ship's entire track history